Metar z połowy godziny Komunikat METAR ze strony awiacja.imgw.pl Metar G30 EPNA METAR EPNA 230800Z 08004KT 3000 BR SCT017 M09/M10 Q1008 RMK M090 093 4/4=